createdAt,value
2023-01-09T00:00:21.344Z,736.3
2023-01-09T00:01:23.856Z,736.2
2023-01-09T00:02:26.419Z,735.3
2023-01-09T00:03:29.025Z,735.6
2023-01-09T00:04:31.548Z,735.5
2023-01-09T00:05:34.111Z,734.8
2023-01-09T00:06:36.641Z,734.9
2023-01-09T00:07:39.161Z,734.7
2023-01-09T00:08:41.390Z,733.7
2023-01-09T00:09:43.945Z,734.1
2023-01-09T00:10:46.174Z,733.8
2023-01-09T00:11:48.682Z,733.7
2023-01-09T00:12:51.293Z,733.7
2023-01-09T00:13:53.586Z,733.6
2023-01-09T00:14:55.543Z,733.6
2023-01-09T00:15:57.573Z,733.5
2023-01-09T00:17:00.092Z,733.7
2023-01-09T00:18:02.643Z,733.8
2023-01-09T00:19:05.261Z,733.5
2023-01-09T00:20:07.300Z,733.9
2023-01-09T00:21:09.590Z,733.6
2023-01-09T00:22:11.840Z,733.5
2023-01-09T00:23:14.365Z,733.7
2023-01-09T00:24:16.608Z,733.7
2023-01-09T00:25:19.128Z,733.9
2023-01-09T00:26:21.649Z,734.2
2023-01-09T00:27:24.133Z,734.1
2023-01-09T00:28:26.375Z,734
2023-01-09T00:29:28.614Z,734.3
2023-01-09T00:30:31.072Z,733.9
2023-01-09T00:31:33.361Z,734.1
2023-01-09T00:32:35.577Z,734
2023-01-09T00:33:38.131Z,733.9
2023-01-09T00:34:40.751Z,734.4
2023-01-09T00:35:42.721Z,734.9
2023-01-09T00:36:45.284Z,735.4
2023-01-09T00:37:47.781Z,735.1
2023-01-09T00:38:50.322Z,735.3
2023-01-09T00:39:52.568Z,734.9
2023-01-09T00:40:54.808Z,734.8
2023-01-09T00:41:57.053Z,734.9
2023-01-09T00:42:59.290Z,734.4
2023-01-09T00:45:07.575Z,734.3
2023-01-09T00:46:10.193Z,734.2
2023-01-09T00:47:12.730Z,734.3
2023-01-09T00:48:15.271Z,735
2023-01-09T00:49:17.527Z,734.6
2023-01-09T00:50:20.134Z,734.4
2023-01-09T00:51:22.394Z,734.9
2023-01-09T00:52:24.696Z,735.4
2023-01-09T00:53:26.952Z,735.5
2023-01-09T00:54:29.467Z,735.4
2023-01-09T00:55:32.009Z,734.9
2023-01-09T00:56:34.235Z,735
2023-01-09T00:57:36.457Z,735.1
2023-01-09T00:58:38.974Z,735
2023-01-09T00:59:41.483Z,735.8
2023-01-09T01:00:43.977Z,735.6
2023-01-09T01:01:47.562Z,735.4
2023-01-09T01:02:50.297Z,735.7
2023-01-09T01:03:52.862Z,735.6
2023-01-09T01:04:55.113Z,736
2023-01-09T01:05:57.700Z,735.8
2023-01-09T01:07:00.193Z,736.3
2023-01-09T01:08:02.455Z,736.3
2023-01-09T01:09:04.954Z,736.1
2023-01-09T01:10:07.451Z,736.2
2023-01-09T01:11:09.945Z,736.5
2023-01-09T01:12:12.189Z,736.4
2023-01-09T01:13:14.688Z,735.4
2023-01-09T01:14:16.897Z,735.9
2023-01-09T01:15:19.164Z,736.4
2023-01-09T01:16:21.797Z,735.6
2023-01-09T01:17:24.342Z,734.8
2023-01-09T01:18:26.890Z,735.7
2023-01-09T01:19:29.409Z,736.6
2023-01-09T01:20:31.915Z,736.6
2023-01-09T01:21:34.496Z,736.1
2023-01-09T01:22:37.019Z,736.5
2023-01-09T01:23:39.288Z,736.7
2023-01-09T01:24:41.544Z,737.4
2023-01-09T01:25:43.837Z,737
2023-01-09T01:26:46.330Z,736.5
2023-01-09T01:27:48.887Z,736.9
2023-01-09T01:28:51.401Z,737.2
2023-01-09T01:29:53.617Z,736.8
2023-01-09T01:30:55.806Z,736.7
2023-01-09T01:31:58.339Z,736.4
2023-01-09T01:33:00.872Z,737
2023-01-09T01:34:03.420Z,736.9
2023-01-09T01:35:05.944Z,736.2
2023-01-09T01:36:08.247Z,736.1
2023-01-09T01:37:10.843Z,736.1
2023-01-09T01:38:13.351Z,736.1
2023-01-09T01:39:15.937Z,736
2023-01-09T01:40:18.146Z,736.5
2023-01-09T01:41:20.080Z,736.7
2023-01-09T01:42:22.357Z,736.2
2023-01-09T01:43:24.587Z,736.3
2023-01-09T01:44:27.090Z,736.4
2023-01-09T01:45:29.329Z,736.4
2023-01-09T01:46:31.676Z,736.6
2023-01-09T01:47:34.190Z,736.9
2023-01-09T01:48:36.405Z,736.5
2023-01-09T01:49:38.643Z,736.9
2023-01-09T01:50:41.156Z,737.1
2023-01-09T01:51:43.399Z,737.2
2023-01-09T01:52:46.103Z,737
2023-01-09T01:53:48.602Z,736.8
2023-01-09T01:54:50.880Z,737.1
2023-01-09T01:55:53.405Z,736.9
2023-01-09T01:56:55.625Z,736.9
2023-01-09T01:57:57.856Z,737.2
2023-01-09T01:59:00.107Z,737.7
2023-01-09T02:00:02.343Z,737.5
2023-01-09T02:01:05.519Z,737.7
2023-01-09T02:02:09.335Z,737.9
2023-01-09T02:03:11.954Z,737.4
2023-01-09T02:04:14.206Z,737.2
2023-01-09T02:05:16.484Z,736.6
2023-01-09T02:06:18.996Z,736.1
2023-01-09T02:07:21.518Z,736
2023-01-09T02:08:24.144Z,736.1
2023-01-09T02:09:26.428Z,736.2
2023-01-09T02:10:29.027Z,736.1
2023-01-09T02:11:31.258Z,736.9
2023-01-09T02:12:33.500Z,736.5
2023-01-09T02:13:36.004Z,736.8
2023-01-09T02:14:38.245Z,736.4
2023-01-09T02:15:40.821Z,736.8
2023-01-09T02:16:43.368Z,736.7
2023-01-09T02:17:45.858Z,737.1
2023-01-09T02:18:48.378Z,736.9
2023-01-09T02:19:50.607Z,736.4
2023-01-09T02:20:53.133Z,736.6
2023-01-09T02:21:55.390Z,736.2
2023-01-09T02:22:57.913Z,737.1
2023-01-09T02:24:00.517Z,737.1
2023-01-09T02:25:03.041Z,737.4
2023-01-09T02:26:05.057Z,737.2
2023-01-09T02:27:07.268Z,737.3
2023-01-09T02:28:09.468Z,737
2023-01-09T02:29:11.696Z,737.3
2023-01-09T02:30:14.215Z,737.4
2023-01-09T02:31:16.772Z,736.6
2023-01-09T02:32:19.017Z,736.7
2023-01-09T02:33:21.531Z,736.5
2023-01-09T02:34:24.126Z,736.9
2023-01-09T02:35:26.654Z,736.6
2023-01-09T02:36:29.199Z,736.3
2023-01-09T02:37:31.415Z,736.5
2023-01-09T02:38:33.665Z,737.1
2023-01-09T02:39:36.300Z,737.4
2023-01-09T02:40:38.799Z,737.4
2023-01-09T02:41:41.387Z,737.5
2023-01-09T02:42:43.940Z,737.1
2023-01-09T02:43:46.183Z,738.1
2023-01-09T02:44:48.117Z,738.7
2023-01-09T02:45:50.904Z,739.1
2023-01-09T02:46:53.185Z,738.5
2023-01-09T02:47:55.405Z,738.8
2023-01-09T02:48:57.908Z,738.4
2023-01-09T02:50:00.396Z,739.2
2023-01-09T02:51:02.664Z,739.2
2023-01-09T02:52:04.929Z,739.6
2023-01-09T02:53:07.189Z,739.1
2023-01-09T02:54:09.720Z,738.7
2023-01-09T02:55:12.398Z,738.2
2023-01-09T02:56:14.907Z,738.2
2023-01-09T02:57:17.436Z,738.3
2023-01-09T02:58:19.949Z,738.6
2023-01-09T02:59:22.472Z,738.8
2023-01-09T03:00:24.989Z,739.1
2023-01-09T03:01:28.095Z,738.9
2023-01-09T03:02:30.678Z,738.9
2023-01-09T03:03:32.938Z,738.4
2023-01-09T03:04:35.452Z,738.6
2023-01-09T03:05:37.725Z,737.8
2023-01-09T03:06:40.226Z,737.6
2023-01-09T03:07:42.186Z,737.4
2023-01-09T03:08:44.412Z,737.5
2023-01-09T03:09:46.643Z,738
2023-01-09T03:10:48.959Z,738.3
2023-01-09T03:11:51.457Z,738.4
2023-01-09T03:12:53.977Z,737.9
2023-01-09T03:13:56.481Z,738.1
2023-01-09T03:14:59.000Z,738.3
2023-01-09T03:16:01.822Z,738.5
2023-01-09T03:17:04.357Z,739
2023-01-09T03:18:06.589Z,739.5
2023-01-09T03:19:09.096Z,739.3
2023-01-09T03:20:11.609Z,739.3
2023-01-09T03:21:14.111Z,739.4
2023-01-09T03:22:16.668Z,739.6
2023-01-09T03:23:19.248Z,739.2
2023-01-09T03:24:21.458Z,739.4
2023-01-09T03:25:24.028Z,739.1
2023-01-09T03:26:26.615Z,738.5
2023-01-09T03:27:28.859Z,738.5
2023-01-09T03:28:31.411Z,738.4
2023-01-09T03:29:33.906Z,738.8
2023-01-09T03:30:36.140Z,738.7
2023-01-09T03:31:39.060Z,738.5
2023-01-09T03:32:41.066Z,738.8
2023-01-09T03:33:43.275Z,738.5
2023-01-09T03:34:45.777Z,737.9
2023-01-09T03:35:48.291Z,738.2
2023-01-09T03:36:50.554Z,738
2023-01-09T03:37:52.775Z,738
2023-01-09T03:38:55.323Z,737.4
2023-01-09T03:39:57.827Z,737.7
2023-01-09T03:41:00.339Z,737.8
2023-01-09T03:42:02.656Z,737.5
2023-01-09T03:43:05.182Z,737.5
2023-01-09T03:44:07.717Z,737.7
2023-01-09T03:45:09.946Z,737.8
2023-01-09T03:46:12.638Z,737.7
2023-01-09T03:47:15.211Z,737.7
2023-01-09T03:48:17.189Z,737.6
2023-01-09T03:49:19.214Z,737.7
2023-01-09T03:50:21.757Z,737.5
2023-01-09T03:51:24.240Z,737.4
2023-01-09T03:52:26.738Z,738.1
2023-01-09T03:53:29.249Z,738
2023-01-09T03:54:31.777Z,737.4
2023-01-09T03:55:34.299Z,737.4
2023-01-09T03:56:36.843Z,737.5
2023-01-09T03:57:39.421Z,737.6
2023-01-09T03:58:41.952Z,737.6
2023-01-09T03:59:44.489Z,737.8
2023-01-09T04:00:47.335Z,737.9
2023-01-09T04:01:50.875Z,737.8
2023-01-09T04:02:53.430Z,737.2
2023-01-09T04:03:55.931Z,737.1
2023-01-09T04:04:58.185Z,737.5
2023-01-09T04:06:00.753Z,737.7
2023-01-09T04:07:03.006Z,737.4
2023-01-09T04:08:05.501Z,737.4
2023-01-09T04:09:07.451Z,738.1
2023-01-09T04:10:10.000Z,738
2023-01-09T04:11:12.607Z,737.9
2023-01-09T04:12:15.115Z,737.4
2023-01-09T04:13:17.427Z,736.8
2023-01-09T04:14:19.671Z,736.3
2023-01-09T04:15:21.916Z,736.6
2023-01-09T04:16:24.691Z,736.7
2023-01-09T04:17:27.244Z,736.4
2023-01-09T04:18:29.952Z,736.1
2023-01-09T04:19:32.389Z,736.1
2023-01-09T04:20:34.334Z,736.1
2023-01-09T04:21:36.820Z,736.2
2023-01-09T04:22:39.158Z,735.7
2023-01-09T04:23:41.683Z,735.4
2023-01-09T04:24:44.210Z,735
2023-01-09T04:25:46.441Z,735.2
2023-01-09T04:26:48.931Z,735.1
2023-01-09T04:27:51.409Z,734.8
2023-01-09T04:28:53.994Z,734.6
2023-01-09T04:29:56.501Z,734.7
2023-01-09T04:30:59.041Z,734.3
2023-01-09T04:32:01.572Z,734.2
2023-01-09T04:33:03.828Z,734.3
2023-01-09T04:34:06.393Z,733.5
2023-01-09T04:35:08.611Z,733.7
2023-01-09T04:36:11.131Z,733.8
2023-01-09T04:37:13.350Z,733.2
2023-01-09T04:38:15.886Z,732.5
2023-01-09T04:39:18.400Z,732
2023-01-09T04:40:20.081Z,731.4
2023-01-09T04:41:22.612Z,731.8
2023-01-09T04:42:24.896Z,731.7
2023-01-09T04:43:27.437Z,731.6
2023-01-09T04:44:30.040Z,731.4
2023-01-09T04:45:32.918Z,731.1
2023-01-09T04:46:35.524Z,730.9
2023-01-09T04:47:38.031Z,730.7
2023-01-09T04:48:40.525Z,730.3
2023-01-09T04:49:42.748Z,730.1
2023-01-09T04:50:45.008Z,730.1
2023-01-09T04:51:47.530Z,730
2023-01-09T04:52:50.053Z,730.2
2023-01-09T04:53:52.337Z,729.5
2023-01-09T04:54:54.595Z,729.7
2023-01-09T04:55:57.091Z,728.6
2023-01-09T04:56:59.614Z,728.9
2023-01-09T04:58:02.131Z,729.2
2023-01-09T04:59:04.642Z,729.1
2023-01-09T05:00:07.234Z,729.2
2023-01-09T05:01:10.442Z,728.5
2023-01-09T05:02:13.908Z,728.3
2023-01-09T05:03:16.482Z,728.5
2023-01-09T05:04:19.294Z,727.3
2023-01-09T05:05:21.900Z,728.4
2023-01-09T05:06:24.172Z,727.3
2023-01-09T05:07:26.838Z,727.8
2023-01-09T05:08:29.183Z,726.6
2023-01-09T05:09:31.736Z,726.9
2023-01-09T05:10:34.305Z,725.5
2023-01-09T05:11:36.814Z,726.9
2023-01-09T05:12:39.581Z,725.7
2023-01-09T05:13:42.151Z,725.6
2023-01-09T05:14:44.392Z,725.9
2023-01-09T05:15:46.426Z,723.7
2023-01-09T05:16:48.985Z,724.4
2023-01-09T05:17:51.527Z,724
2023-01-09T05:18:53.755Z,724.4
2023-01-09T05:19:56.042Z,724
2023-01-09T05:20:58.563Z,724.4
2023-01-09T05:22:00.812Z,723.7
2023-01-09T05:23:02.768Z,723.2
2023-01-09T05:24:05.286Z,722.7
2023-01-09T05:25:07.822Z,722.7
2023-01-09T05:26:10.346Z,722.1
2023-01-09T05:27:12.588Z,723.1
2023-01-09T05:28:15.125Z,722.2
2023-01-09T05:29:17.677Z,722.8
2023-01-09T05:30:20.617Z,722.4
2023-01-09T05:31:23.386Z,721.8
2023-01-09T05:32:25.916Z,719.4
2023-01-09T05:33:27.928Z,720.6
2023-01-09T05:34:30.440Z,718.1
2023-01-09T05:35:32.708Z,719.8
2023-01-09T05:36:34.961Z,720.9
2023-01-09T05:37:37.221Z,719.7
2023-01-09T05:38:39.725Z,718.6
2023-01-09T05:39:41.705Z,720.4
2023-01-09T05:40:43.944Z,720.3
2023-01-09T05:41:46.191Z,718.7
2023-01-09T05:42:48.679Z,720.6
2023-01-09T05:43:51.234Z,719.4
2023-01-09T05:44:53.758Z,720.5
2023-01-09T05:45:56.525Z,720.1
2023-01-09T05:47:00.102Z,720
2023-01-09T05:48:02.860Z,719.7
2023-01-09T05:49:05.431Z,720
2023-01-09T05:50:07.984Z,720.6
2023-01-09T05:51:10.526Z,719.3
2023-01-09T05:52:12.315Z,719.8
2023-01-09T05:53:15.136Z,718.9
2023-01-09T05:54:17.840Z,719.2
2023-01-09T05:55:20.095Z,718.4
2023-01-09T05:56:22.622Z,718.5
2023-01-09T05:57:24.892Z,718.1
2023-01-09T05:58:26.852Z,718.5
2023-01-09T05:59:29.374Z,718.2
2023-01-09T06:00:31.876Z,718.9
2023-01-09T06:01:34.666Z,718.6
2023-01-09T06:02:38.449Z,719.5
2023-01-09T06:03:41.029Z,719.9
2023-01-09T06:04:43.563Z,719.2
2023-01-09T06:05:46.104Z,719.1
2023-01-09T06:06:48.616Z,718.3
2023-01-09T06:07:51.143Z,717.1
2023-01-09T06:08:53.132Z,718.1
2023-01-09T06:09:55.636Z,718.3
2023-01-09T06:10:58.143Z,717.4
2023-01-09T06:12:00.627Z,717.3
2023-01-09T06:13:03.136Z,716.7
2023-01-09T06:14:05.435Z,717
2023-01-09T06:16:13.073Z,716.1
2023-01-09T06:17:15.376Z,715.7
2023-01-09T06:18:18.008Z,715.7
2023-01-09T06:19:20.532Z,715.4
2023-01-09T06:20:23.070Z,716
2023-01-09T06:21:25.349Z,715.2
2023-01-09T06:22:27.617Z,715.4
2023-01-09T06:23:29.866Z,714.3
2023-01-09T06:24:31.815Z,714.1
2023-01-09T06:25:34.327Z,714.2
2023-01-09T06:26:36.841Z,713.5
2023-01-09T06:27:39.066Z,713
2023-01-09T06:28:44.526Z,711.5
2023-01-09T06:29:49.216Z,713.1
2023-01-09T06:30:51.690Z,710.6
2023-01-09T06:31:54.010Z,712.7
2023-01-09T06:32:56.010Z,711.3
2023-01-09T06:33:58.797Z,710.6
2023-01-09T06:35:01.436Z,712.3
2023-01-09T06:36:04.013Z,712.5
2023-01-09T06:37:06.535Z,712
2023-01-09T06:38:09.044Z,711.5
2023-01-09T06:39:11.561Z,711.9
2023-01-09T06:40:13.823Z,711.7
2023-01-09T06:41:16.038Z,710.6
2023-01-09T06:42:18.612Z,706.6
2023-01-09T06:43:21.465Z,709.9
2023-01-09T06:44:23.854Z,709.8
2023-01-09T06:45:26.533Z,710
2023-01-09T06:46:28.907Z,710.1
2023-01-09T06:47:31.524Z,709.4
2023-01-09T06:48:34.048Z,709.4
2023-01-09T06:49:36.642Z,710.2
2023-01-09T06:50:38.870Z,709.7
2023-01-09T06:51:41.430Z,709.7
2023-01-09T06:52:43.975Z,708.9
2023-01-09T06:53:45.933Z,709.8
2023-01-09T06:54:47.906Z,709.4
2023-01-09T06:55:50.415Z,708.7
2023-01-09T06:56:52.956Z,709.7
2023-01-09T06:57:55.800Z,709.3
2023-01-09T06:58:58.322Z,709.7
2023-01-09T07:00:00.830Z,708.9
2023-01-09T07:01:03.921Z,709.5
2023-01-09T07:02:06.658Z,708.4
2023-01-09T07:03:09.257Z,708.5
2023-01-09T07:04:12.157Z,708.7
2023-01-09T07:05:14.224Z,708.6
2023-01-09T07:06:16.785Z,708.5
2023-01-09T07:07:19.334Z,707.8
2023-01-09T07:08:21.591Z,707.8
2023-01-09T07:09:24.115Z,707.9
2023-01-09T07:10:26.343Z,707.4
2023-01-09T07:11:28.859Z,706.8
2023-01-09T07:12:30.257Z,707.2
2023-01-09T07:13:32.505Z,707.5
2023-01-09T07:14:35.069Z,707.3
2023-01-09T07:15:37.331Z,706.7
2023-01-09T07:16:39.612Z,706.5
2023-01-09T07:17:42.152Z,706.1
2023-01-09T07:18:44.423Z,706.6
2023-01-09T07:19:46.699Z,706.5
2023-01-09T07:20:49.053Z,705.6
2023-01-09T07:21:51.584Z,705.4
2023-01-09T07:22:54.289Z,705.8
2023-01-09T07:23:56.842Z,705.3
2023-01-09T07:24:59.172Z,704.9
2023-01-09T07:26:01.470Z,704.7
2023-01-09T07:27:04.089Z,703.4
2023-01-09T07:28:06.679Z,704.1
2023-01-09T07:29:09.192Z,703
2023-01-09T07:30:11.731Z,702.2
2023-01-09T07:31:14.290Z,702.2
2023-01-09T07:32:16.819Z,702.9
2023-01-09T07:33:18.766Z,702.1
2023-01-09T07:34:21.408Z,701.2
2023-01-09T07:35:23.958Z,701.5
2023-01-09T07:36:26.024Z,701.2
2023-01-09T07:37:28.593Z,700.9
2023-01-09T07:38:31.138Z,701.4
2023-01-09T07:39:33.717Z,700.7
2023-01-09T07:40:36.018Z,701.2
2023-01-09T07:41:38.268Z,700.6
2023-01-09T07:42:40.501Z,700
2023-01-09T07:43:42.759Z,700.5
2023-01-09T07:44:45.023Z,700.7
2023-01-09T07:45:47.256Z,700.5
2023-01-09T07:46:49.783Z,700.8
2023-01-09T07:47:52.292Z,700.9
2023-01-09T07:48:54.225Z,700.8
2023-01-09T07:49:56.804Z,700.6
2023-01-09T07:50:59.319Z,701
2023-01-09T07:52:02.031Z,700
2023-01-09T07:53:04.548Z,700.8
2023-01-09T07:54:06.859Z,700.1
2023-01-09T07:55:09.378Z,700.4
2023-01-09T07:56:11.625Z,700.6
2023-01-09T07:57:14.274Z,700.7
2023-01-09T07:58:16.783Z,700.3
2023-01-09T07:59:19.334Z,700.5
2023-01-09T08:00:21.766Z,700.2
2023-01-09T08:01:25.052Z,699.7
2023-01-09T08:02:27.700Z,700
2023-01-09T08:03:30.285Z,699.6
2023-01-09T08:04:32.860Z,699.7
2023-01-09T08:05:35.442Z,698.9
2023-01-09T08:06:38.039Z,699.2
2023-01-09T08:07:40.731Z,699.2
2023-01-09T08:08:42.957Z,698.6
2023-01-09T08:09:45.731Z,696.9
2023-01-09T08:10:48.293Z,697.9
2023-01-09T08:11:50.616Z,698.1
2023-01-09T08:12:53.156Z,697.3
2023-01-09T08:13:55.703Z,697.5
2023-01-09T08:14:58.034Z,697.5
2023-01-09T08:16:01.070Z,696.5
2023-01-09T08:17:03.135Z,696.8
2023-01-09T08:18:05.708Z,697.1
2023-01-09T08:19:08.028Z,697.4
2023-01-09T08:20:10.547Z,697.2
2023-01-09T08:21:12.916Z,696.5
2023-01-09T08:22:15.561Z,696.6
2023-01-09T08:23:18.256Z,696.7
2023-01-09T08:24:20.515Z,696.7
2023-01-09T08:25:23.163Z,696.6
2023-01-09T08:26:25.728Z,696.4
2023-01-09T08:27:28.018Z,696.2
2023-01-09T08:28:30.325Z,695.6
2023-01-09T08:29:32.874Z,695.6
2023-01-09T08:30:34.838Z,695.6
2023-01-09T08:31:37.706Z,695.1
2023-01-09T08:32:40.033Z,695.4
2023-01-09T08:33:42.731Z,695.3
2023-01-09T08:34:45.236Z,695.2
2023-01-09T08:35:48.121Z,694
2023-01-09T08:36:50.693Z,694.7
2023-01-09T08:37:53.353Z,694.7
2023-01-09T08:38:55.954Z,694.8
2023-01-09T08:39:58.482Z,694.4
2023-01-09T08:41:00.865Z,694.1
2023-01-09T08:42:03.151Z,695.1
2023-01-09T08:43:05.383Z,694.3
2023-01-09T08:44:07.628Z,694.8
2023-01-09T08:45:09.883Z,694.7
2023-01-09T08:46:11.919Z,694.3
2023-01-09T08:47:14.159Z,694.1
2023-01-09T08:48:16.722Z,692.9
2023-01-09T08:49:19.229Z,693
2023-01-09T08:50:21.468Z,692.3
2023-01-09T08:51:23.987Z,693.8
2023-01-09T08:52:26.259Z,690.5
2023-01-09T08:53:28.503Z,693.8
2023-01-09T08:55:35.907Z,694.3
2023-01-09T08:56:38.437Z,693.1
2023-01-09T08:57:40.682Z,693.7
2023-01-09T08:58:43.226Z,693.7
2023-01-09T08:59:45.746Z,694
2023-01-09T09:00:48.286Z,694.4
2023-01-09T09:01:51.499Z,693.7
2023-01-09T09:02:53.980Z,692.5
2023-01-09T09:03:55.768Z,693.6
2023-01-09T09:04:58.026Z,692.6
2023-01-09T09:06:00.420Z,692.7
2023-01-09T09:07:02.713Z,693
2023-01-09T09:08:05.236Z,693.6
2023-01-09T09:09:07.744Z,693.1
2023-01-09T09:10:10.032Z,693.4
2023-01-09T09:11:12.682Z,693.5
2023-01-09T09:12:14.943Z,693
2023-01-09T09:13:17.453Z,692.9
2023-01-09T09:14:19.980Z,692.3
2023-01-09T09:15:22.519Z,692.8
2023-01-09T09:16:25.173Z,692.3
2023-01-09T09:17:27.486Z,691.9
2023-01-09T09:18:30.025Z,692.5
2023-01-09T09:19:31.986Z,693.5
2023-01-09T09:20:34.245Z,692.9
2023-01-09T09:21:36.514Z,692.8
2023-01-09T09:22:38.755Z,693
2023-01-09T09:23:41.271Z,692.6
2023-01-09T09:24:43.287Z,693.3
2023-01-09T09:25:45.558Z,693.1
2023-01-09T09:26:47.870Z,693.3
2023-01-09T09:27:50.474Z,693.3
2023-01-09T09:28:53.007Z,692.5
2023-01-09T09:29:55.244Z,691.9
2023-01-09T09:30:57.432Z,693.2
2023-01-09T09:33:04.470Z,692.8
2023-01-09T09:34:06.744Z,693.1
2023-01-09T09:35:09.014Z,693.8
2023-01-09T09:36:11.595Z,692.9
2023-01-09T09:37:14.215Z,693.7
2023-01-09T09:38:16.482Z,693
2023-01-09T09:39:18.845Z,691.8
2023-01-09T09:40:21.110Z,691.6
2023-01-09T09:41:22.802Z,691.9
2023-01-09T09:42:25.153Z,692
2023-01-09T09:43:27.733Z,691.1
2023-01-09T09:44:30.011Z,690.9
2023-01-09T09:45:32.252Z,691.7
2023-01-09T09:46:35.154Z,691.9
2023-01-09T09:47:37.174Z,692
2023-01-09T09:48:39.171Z,692.4
2023-01-09T09:49:41.709Z,691.9
2023-01-09T09:50:44.219Z,692.3
2023-01-09T09:51:46.478Z,691.9
2023-01-09T09:52:49.251Z,692
2023-01-09T09:53:51.769Z,691.9
2023-01-09T09:54:54.345Z,691.7
2023-01-09T09:55:56.644Z,691.6
2023-01-09T09:56:58.896Z,691.6
2023-01-09T09:58:01.487Z,691.8
2023-01-09T09:59:03.512Z,691.8
2023-01-09T10:00:06.054Z,692.1
2023-01-09T10:01:08.321Z,691.1
2023-01-09T10:02:10.478Z,691.4
2023-01-09T10:04:19.745Z,692
2023-01-09T10:05:22.294Z,692.2
2023-01-09T10:06:24.959Z,692.7
2023-01-09T10:07:27.496Z,693.2
2023-01-09T10:08:30.039Z,692.4
2023-01-09T10:09:32.288Z,692.6
2023-01-09T10:10:34.592Z,693.4
2023-01-09T10:11:37.154Z,693.9
2023-01-09T10:12:39.737Z,694
2023-01-09T10:13:42.497Z,694.6
2023-01-09T10:14:44.551Z,695.2
2023-01-09T10:15:46.666Z,694.7
2023-01-09T10:16:48.676Z,694.8
2023-01-09T10:17:50.917Z,694.7
2023-01-09T10:18:53.154Z,694.9
2023-01-09T10:19:55.154Z,694.4
2023-01-09T10:20:57.415Z,694.3
2023-01-09T10:21:59.408Z,694.2
2023-01-09T10:23:01.970Z,692.7
2023-01-09T10:24:04.230Z,694.5
2023-01-09T10:25:06.761Z,693.1
2023-01-09T10:26:09.250Z,693.7
2023-01-09T10:27:11.800Z,693.6
2023-01-09T10:28:14.345Z,694.9
2023-01-09T10:29:16.961Z,694.7
2023-01-09T10:30:19.535Z,693.9
2023-01-09T10:31:22.181Z,694.2
2023-01-09T10:32:24.720Z,694.1
2023-01-09T10:33:26.990Z,694
2023-01-09T10:34:29.543Z,693.6
2023-01-09T10:36:37.333Z,693.7
2023-01-09T10:37:39.939Z,694.6
2023-01-09T10:38:42.188Z,694.6
2023-01-09T10:39:44.537Z,694.7
2023-01-09T10:40:46.502Z,694.2
2023-01-09T10:41:48.815Z,695.1
2023-01-09T10:42:51.129Z,695
2023-01-09T10:43:53.705Z,692.9
2023-01-09T10:44:56.437Z,695.1
2023-01-09T10:45:58.740Z,694.7
2023-01-09T10:47:01.474Z,694.6
2023-01-09T10:48:03.717Z,693.9
2023-01-09T10:49:06.218Z,693.1
2023-01-09T10:50:08.755Z,694.2
2023-01-09T10:51:11.025Z,693.5
2023-01-09T10:52:16.634Z,694.5
2023-01-09T10:53:19.190Z,693.1
2023-01-09T10:54:21.733Z,694.5
2023-01-09T10:55:23.421Z,693.2
2023-01-09T10:56:26.047Z,694.1
2023-01-09T10:57:28.576Z,694
2023-01-09T10:58:30.566Z,694.4
2023-01-09T10:59:32.632Z,694.3
2023-01-09T11:00:35.261Z,694.4
2023-01-09T11:01:37.850Z,693.9
2023-01-09T11:02:40.962Z,694.4
2023-01-09T11:03:43.430Z,694.4
2023-01-09T11:04:45.708Z,694.8
2023-01-09T11:05:48.209Z,694.7
2023-01-09T11:06:50.488Z,694.9
2023-01-09T11:07:53.044Z,694.2
2023-01-09T11:08:55.561Z,694.8
2023-01-09T11:09:57.840Z,694.9
2023-01-09T11:11:00.105Z,694.5
2023-01-09T11:12:02.643Z,694.5
2023-01-09T11:13:04.886Z,693.8
2023-01-09T11:14:07.612Z,694.9
2023-01-09T11:15:10.144Z,695.2
2023-01-09T11:16:13.212Z,694.8
2023-01-09T11:17:15.668Z,694.8
2023-01-09T11:18:17.988Z,695.2
2023-01-09T11:19:20.211Z,695.4
2023-01-09T11:20:22.174Z,695.4
2023-01-09T11:21:24.704Z,695.5
2023-01-09T11:22:27.211Z,695.4
2023-01-09T11:23:29.481Z,695.5
2023-01-09T11:24:32.071Z,695.2
2023-01-09T11:25:34.292Z,695.8
2023-01-09T11:26:36.522Z,695.4
2023-01-09T11:27:38.764Z,694.1
2023-01-09T11:28:41.349Z,694.1
2023-01-09T11:29:43.972Z,694.3
2023-01-09T11:30:46.623Z,694.8
2023-01-09T11:31:49.563Z,694.3
2023-01-09T11:32:52.196Z,694.6
2023-01-09T11:33:54.713Z,694.4
2023-01-09T11:34:56.993Z,694.6
2023-01-09T11:35:59.272Z,694.5
2023-01-09T11:37:02.200Z,694.7
2023-01-09T11:38:04.753Z,693.9
2023-01-09T11:39:07.051Z,694.6
2023-01-09T11:40:09.292Z,694.5
2023-01-09T11:41:11.529Z,695.3
2023-01-09T11:42:13.500Z,694.4
2023-01-09T11:43:15.761Z,694.8
2023-01-09T11:44:18.396Z,694.9
2023-01-09T11:45:20.708Z,694.6
2023-01-09T11:46:23.131Z,694.8
2023-01-09T11:47:25.951Z,694.9
2023-01-09T11:48:28.514Z,695
2023-01-09T11:49:31.090Z,694.6
2023-01-09T11:50:33.347Z,694.4
2023-01-09T11:51:35.907Z,694.8
2023-01-09T11:52:37.953Z,694.5
2023-01-09T11:53:40.244Z,694.3
2023-01-09T11:54:42.216Z,695
2023-01-09T11:55:45.335Z,694.6
2023-01-09T11:56:47.894Z,695.5
2023-01-09T11:57:49.846Z,695.2
2023-01-09T11:58:51.873Z,695.3
2023-01-09T11:59:54.509Z,694.8
2023-01-09T12:00:57.046Z,694.6
2023-01-09T12:01:59.640Z,695.7
2023-01-09T12:03:02.283Z,695.4
2023-01-09T12:04:04.851Z,695.8
2023-01-09T12:05:07.394Z,696
2023-01-09T12:06:09.640Z,695.9
2023-01-09T12:07:11.908Z,695.8
2023-01-09T12:08:14.418Z,695.8
2023-01-09T12:09:16.970Z,696.1
2023-01-09T12:10:19.482Z,696.2
2023-01-09T12:11:21.746Z,695.9
2023-01-09T12:12:24.031Z,695.6
2023-01-09T12:13:26.560Z,695.9
2023-01-09T12:14:29.098Z,695.3
2023-01-09T12:15:31.650Z,695.3
2023-01-09T12:16:34.153Z,695.5
2023-01-09T12:17:36.929Z,695.3
2023-01-09T12:18:40.735Z,694.9
2023-01-09T12:19:43.765Z,695.1
2023-01-09T12:20:46.277Z,695.1
2023-01-09T12:21:48.542Z,695.2
2023-01-09T12:22:51.075Z,695
2023-01-09T12:23:53.616Z,695.5
2023-01-09T12:24:55.898Z,694.6
2023-01-09T12:25:57.865Z,694.7
2023-01-09T12:27:00.144Z,693.3
2023-01-09T12:28:02.424Z,694.7
2023-01-09T12:29:04.964Z,694.4
2023-01-09T12:30:06.945Z,694.5
2023-01-09T12:31:09.486Z,694.9
2023-01-09T12:32:11.831Z,694.7
2023-01-09T12:33:14.349Z,693.7
2023-01-09T12:34:16.674Z,692.9
2023-01-09T12:35:18.968Z,692.2
2023-01-09T12:36:21.484Z,692.8
2023-01-09T12:37:23.460Z,693.3
2023-01-09T12:38:26.373Z,693.7
2023-01-09T12:39:28.652Z,693.7
2023-01-09T12:40:31.208Z,693.6
2023-01-09T12:41:33.466Z,693.1
2023-01-09T12:42:36.044Z,692.8
2023-01-09T12:43:38.292Z,693.4
2023-01-09T12:44:40.557Z,692.4
2023-01-09T12:45:43.432Z,693
2023-01-09T12:46:45.996Z,693
2023-01-09T12:47:48.365Z,693.2
2023-01-09T12:48:50.875Z,691.9
2023-01-09T12:49:53.186Z,693.6
2023-01-09T12:50:55.510Z,693.4
2023-01-09T12:51:58.044Z,692.9
2023-01-09T12:53:00.284Z,692.8
2023-01-09T12:54:02.821Z,693
2023-01-09T12:55:06.818Z,693.7
2023-01-09T12:56:09.438Z,693.4
2023-01-09T12:57:11.944Z,693.5
2023-01-09T12:58:13.898Z,693.9
2023-01-09T12:59:16.147Z,693.3
2023-01-09T13:00:18.670Z,694.1
2023-01-09T13:01:21.568Z,693.5
2023-01-09T13:02:24.160Z,694.5
2023-01-09T13:03:26.429Z,693.5
2023-01-09T13:04:28.637Z,694.5
2023-01-09T13:05:31.051Z,693.3
2023-01-09T13:06:33.601Z,694.4
2023-01-09T13:07:35.560Z,693.6
2023-01-09T13:08:37.791Z,693.5
2023-01-09T13:09:40.139Z,693.1
2023-01-09T13:10:42.738Z,693.8
2023-01-09T13:11:44.753Z,692.6
2023-01-09T13:12:47.267Z,692.9
2023-01-09T13:13:49.259Z,693.2
2023-01-09T13:14:51.862Z,693.3
2023-01-09T13:15:54.524Z,693.2
2023-01-09T13:16:57.232Z,693.7
2023-01-09T13:17:59.846Z,693.7
2023-01-09T13:19:02.145Z,693.6
2023-01-09T13:20:04.157Z,692.9
2023-01-09T13:21:06.899Z,692.9
2023-01-09T13:22:09.537Z,693.2
2023-01-09T13:23:11.495Z,692.8
2023-01-09T13:24:13.446Z,693
2023-01-09T13:25:15.137Z,693.3
2023-01-09T13:26:17.375Z,693.6
2023-01-09T13:27:19.614Z,693.3
2023-01-09T13:28:21.591Z,693.8
2023-01-09T13:29:23.872Z,694.7
2023-01-09T13:30:26.166Z,694.9
2023-01-09T13:31:28.892Z,693.5
2023-01-09T13:32:31.463Z,693.8
2023-01-09T13:33:33.774Z,693.7
2023-01-09T13:34:36.065Z,693.4